createdAt,value
2022-10-30T04:01:31.599Z,8.55
2022-10-30T04:03:58.804Z,7.40
2022-10-30T04:06:25.941Z,9.10
2022-10-30T04:08:55.110Z,7.15
2022-10-30T04:11:22.331Z,12.48
2022-10-30T04:13:49.622Z,11.53
2022-10-30T04:16:16.708Z,4.50
2022-10-30T04:18:43.888Z,6.05
2022-10-30T04:21:11.010Z,8.05
2022-10-30T04:23:38.191Z,7.70
2022-10-30T04:26:05.364Z,6.03
2022-10-30T04:28:32.479Z,8.40
2022-10-30T04:30:59.554Z,7.30
2022-10-30T04:33:26.692Z,10.07
2022-10-30T04:35:54.794Z,10.80
2022-10-30T04:38:22.377Z,9.07
2022-10-30T04:40:49.511Z,5.93
2022-10-30T04:43:16.699Z,8.50
2022-10-30T04:45:43.919Z,10.10
2022-10-30T04:48:16.229Z,8.73
2022-10-30T04:50:44.190Z,11.23
2022-10-30T04:53:17.165Z,7.10
2022-10-30T04:55:44.806Z,5.13
2022-10-30T04:58:12.729Z,9.02
2022-10-30T05:00:40.037Z,12.00
2022-10-30T05:03:07.301Z,8.93
2022-10-30T05:05:34.446Z,5.63
2022-10-30T05:08:02.069Z,9.37
2022-10-30T05:10:29.528Z,6.10
2022-10-30T05:12:56.711Z,6.38
2022-10-30T05:15:23.978Z,6.65
2022-10-30T05:17:53.407Z,12.10
2022-10-30T05:20:21.411Z,6.03
2022-10-30T05:22:58.858Z,7.05
2022-10-30T05:25:26.928Z,11.50
2022-10-30T05:28:02.007Z,11.47
2022-10-30T05:30:31.078Z,7.15
2022-10-30T05:33:02.940Z,7.85
2022-10-30T05:35:32.698Z,8.20
2022-10-30T05:38:01.960Z,8.85
2022-10-30T05:40:29.132Z,8.63
2022-10-30T05:42:56.566Z,11.73
2022-10-30T05:45:24.305Z,9.98
2022-10-30T05:47:56.137Z,7.78
2022-10-30T05:50:24.029Z,7.18
2022-10-30T05:53:04.550Z,10.40
2022-10-30T05:55:33.495Z,8.00
2022-10-30T05:58:02.782Z,10.02
2022-10-30T06:00:32.062Z,9.43
2022-10-30T06:03:04.419Z,7.15
2022-10-30T06:05:34.063Z,14.43
2022-10-30T06:08:02.026Z,7.47
2022-10-30T06:10:29.460Z,10.30
2022-10-30T06:12:58.981Z,7.38
2022-10-30T06:15:26.627Z,7.53
2022-10-30T06:17:54.361Z,9.73
2022-10-30T06:20:25.891Z,7.43
2022-10-30T06:22:58.933Z,7.55
2022-10-30T06:25:26.735Z,8.68
2022-10-30T06:27:54.075Z,7.78
2022-10-30T06:30:21.725Z,8.60
2022-10-30T06:32:49.230Z,11.23
2022-10-30T06:35:16.924Z,7.85
2022-10-30T06:37:47.865Z,8.15
2022-10-30T06:40:15.653Z,7.43
2022-10-30T06:42:44.734Z,5.80
2022-10-30T06:45:13.431Z,6.20
2022-10-30T06:47:40.940Z,9.13
2022-10-30T06:50:14.353Z,9.07
2022-10-30T06:52:41.898Z,7.65
2022-10-30T06:55:09.835Z,8.50
2022-10-30T06:57:37.592Z,8.38
2022-10-30T07:00:06.605Z,7.85
2022-10-30T07:02:34.135Z,10.07
2022-10-30T07:05:01.445Z,9.30
2022-10-30T07:07:29.080Z,7.35
2022-10-30T07:09:56.314Z,6.32
2022-10-30T07:12:23.550Z,6.50
2022-10-30T07:14:50.659Z,9.88
2022-10-30T07:17:17.781Z,9.85
2022-10-30T07:19:45.011Z,8.05
2022-10-30T07:22:12.150Z,7.93
2022-10-30T07:24:39.267Z,8.00
2022-10-30T07:27:06.401Z,7.97
2022-10-30T07:29:33.523Z,8.50
2022-10-30T07:32:03.963Z,8.80
2022-10-30T07:34:31.329Z,9.18
2022-10-30T07:36:59.002Z,9.50
2022-10-30T07:39:26.160Z,7.80
2022-10-30T07:41:53.271Z,8.93
2022-10-30T07:44:20.461Z,8.10
2022-10-30T07:46:47.604Z,9.85
2022-10-30T07:49:14.735Z,9.05
2022-10-30T07:51:41.894Z,12.55
2022-10-30T07:54:09.074Z,9.65
2022-10-30T07:56:36.266Z,7.15
2022-10-30T07:59:03.398Z,10.13
2022-10-30T08:01:30.652Z,9.57
2022-10-30T08:03:57.843Z,11.90
2022-10-30T08:06:27.192Z,9.05
2022-10-30T08:08:54.888Z,10.98
2022-10-30T08:11:22.022Z,11.00
2022-10-30T08:13:49.182Z,11.00
2022-10-30T08:16:18.177Z,10.45
2022-10-30T08:18:45.927Z,6.57
2022-10-30T08:21:13.267Z,8.90
2022-10-30T08:23:40.432Z,7.45
2022-10-30T08:26:07.654Z,11.40
2022-10-30T08:28:34.803Z,8.00
2022-10-30T08:31:02.663Z,6.47
2022-10-30T08:33:29.961Z,8.82
2022-10-30T08:35:59.078Z,8.20
2022-10-30T08:38:27.751Z,7.28
2022-10-30T08:40:55.320Z,7.25
2022-10-30T08:43:23.576Z,4.72
2022-10-30T08:45:50.724Z,4.85
2022-10-30T08:48:18.077Z,6.30
2022-10-30T08:50:45.272Z,8.82
2022-10-30T08:53:14.046Z,5.93
2022-10-30T08:55:41.801Z,9.55
2022-10-30T08:58:08.992Z,9.25
2022-10-30T09:00:36.158Z,12.40
2022-10-30T09:03:04.019Z,6.45
2022-10-30T09:05:31.594Z,9.15
2022-10-30T09:08:01.338Z,9.98
2022-10-30T09:10:29.810Z,4.93
2022-10-30T09:12:58.463Z,7.63
2022-10-30T09:15:26.669Z,6.65
2022-10-30T09:17:58.910Z,10.60
2022-10-30T09:20:26.981Z,10.02
2022-10-30T09:22:54.218Z,8.50
2022-10-30T09:25:21.616Z,7.47
2022-10-30T09:27:48.798Z,5.57
2022-10-30T09:30:15.991Z,8.93
2022-10-30T09:32:43.233Z,6.28
2022-10-30T09:35:10.418Z,7.45
2022-10-30T09:37:38.548Z,6.07
2022-10-30T09:40:07.631Z,8.60
2022-10-30T09:42:41.638Z,8.90
2022-10-30T09:45:28.608Z,12.60
2022-10-30T09:48:18.139Z,8.02
2022-10-30T09:51:27.635Z,9.23
2022-10-30T09:54:00.359Z,10.63
2022-10-30T09:56:41.758Z,8.95
2022-10-30T09:59:26.376Z,9.52
2022-10-30T10:02:01.390Z,6.53
2022-10-30T10:04:30.853Z,7.40
2022-10-30T10:07:04.600Z,9.52
2022-10-30T10:09:34.827Z,9.40
2022-10-30T10:12:09.459Z,6.80
2022-10-30T10:14:41.660Z,8.48
2022-10-30T10:17:13.566Z,10.18
2022-10-30T10:20:02.261Z,9.27
2022-10-30T10:22:48.715Z,6.15
2022-10-30T10:25:19.197Z,5.90
2022-10-30T10:28:18.550Z,12.80
2022-10-30T10:31:03.445Z,9.20
2022-10-30T10:33:57.804Z,7.13
2022-10-30T10:36:50.003Z,10.20
2022-10-30T10:39:51.291Z,5.45
2022-10-30T10:42:38.620Z,7.82
2022-10-30T10:45:29.597Z,6.32
2022-10-30T10:47:59.774Z,7.18
2022-10-30T10:50:47.012Z,6.95
2022-10-30T10:53:24.734Z,8.15
2022-10-30T10:55:57.204Z,7.72
2022-10-30T10:58:41.339Z,5.85
2022-10-30T11:01:15.244Z,4.95
2022-10-30T11:04:08.596Z,7.32
2022-10-30T11:06:40.685Z,8.98
2022-10-30T11:09:22.136Z,6.40
2022-10-30T11:11:51.326Z,11.15
2022-10-30T11:14:21.506Z,8.35
2022-10-30T11:17:13.230Z,12.25
2022-10-30T11:19:40.411Z,4.82
2022-10-30T11:22:24.116Z,8.27
2022-10-30T11:24:51.259Z,9.35
2022-10-30T11:27:30.618Z,6.78
2022-10-30T11:30:06.064Z,8.63
2022-10-30T11:32:34.580Z,13.52
2022-10-30T11:35:07.546Z,8.23
2022-10-30T11:37:37.120Z,7.47
2022-10-30T11:40:22.909Z,7.75
2022-10-30T11:42:58.262Z,6.75
2022-10-30T11:45:29.966Z,5.65
2022-10-30T11:48:02.446Z,5.25
2022-10-30T11:50:32.321Z,8.15
2022-10-30T11:53:09.436Z,8.00
2022-10-30T11:55:40.204Z,5.53
2022-10-30T11:58:11.438Z,5.68
2022-10-30T12:00:40.904Z,6.38
2022-10-30T12:03:33.983Z,8.57
2022-10-30T12:06:24.759Z,6.65
2022-10-30T12:09:19.784Z,6.90
2022-10-30T12:11:47.623Z,4.97
2022-10-30T12:14:26.823Z,4.80
2022-10-30T12:16:56.620Z,6.13
2022-10-30T12:19:25.610Z,4.25
2022-10-30T12:21:57.067Z,5.95
2022-10-30T12:24:29.413Z,3.65
2022-10-30T12:27:00.686Z,5.35
2022-10-30T12:30:06.838Z,6.95
2022-10-30T12:32:41.643Z,6.75
2022-10-30T12:35:40.403Z,6.03
2022-10-30T12:38:25.292Z,5.90
2022-10-30T12:41:05.603Z,6.88
2022-10-30T12:43:36.367Z,10.63
2022-10-30T12:46:36.171Z,6.97
2022-10-30T12:49:08.287Z,9.02
2022-10-30T12:51:43.172Z,9.40
2022-10-30T12:54:34.066Z,6.72
2022-10-30T12:57:08.459Z,6.95
2022-10-30T12:59:53.615Z,6.72
2022-10-30T13:02:38.677Z,11.38
2022-10-30T13:05:24.323Z,6.43
2022-10-30T13:08:05.069Z,5.90
2022-10-30T13:10:35.543Z,7.50
2022-10-30T13:13:18.902Z,6.22
2022-10-30T13:15:51.863Z,5.18
2022-10-30T13:18:22.095Z,7.97
2022-10-30T13:21:11.175Z,5.75
2022-10-30T13:24:05.372Z,4.43
2022-10-30T13:26:47.832Z,4.80
2022-10-30T13:29:26.666Z,6.15
2022-10-30T13:32:07.763Z,5.95
2022-10-30T13:34:45.996Z,8.18
2022-10-30T13:37:34.611Z,6.18
2022-10-30T13:40:14.602Z,7.80
2022-10-30T13:43:24.048Z,6.35
2022-10-30T13:46:16.441Z,8.07
2022-10-30T13:49:12.592Z,7.72
2022-10-30T13:52:05.745Z,5.07
2022-10-30T13:54:54.452Z,8.65
2022-10-30T13:57:38.536Z,6.47
2022-10-30T14:00:25.993Z,7.55
2022-10-30T14:03:02.692Z,7.90
2022-10-30T14:05:42.373Z,6.22
2022-10-30T14:08:33.302Z,6.35
2022-10-30T14:11:01.681Z,6.57
2022-10-30T14:13:44.669Z,8.38
2022-10-30T14:16:44.663Z,9.05
2022-10-30T14:19:14.144Z,8.45
2022-10-30T14:21:51.840Z,8.27
2022-10-30T14:24:33.688Z,7.18
2022-10-30T14:27:03.685Z,5.35
2022-10-30T14:29:33.899Z,5.10
2022-10-30T14:32:01.625Z,6.72
2022-10-30T14:34:42.227Z,7.75
2022-10-30T14:37:10.539Z,5.18
2022-10-30T14:39:43.111Z,5.43
2022-10-30T14:42:47.686Z,5.65
2022-10-30T14:45:26.687Z,8.10
2022-10-30T14:48:15.989Z,4.97
2022-10-30T14:50:58.487Z,8.73
2022-10-30T14:54:18.460Z,5.55
2022-10-30T14:56:47.985Z,10.77
2022-10-30T14:59:15.178Z,9.30
2022-10-30T15:02:24.201Z,5.30
2022-10-30T15:05:06.936Z,7.82
2022-10-30T15:07:48.592Z,6.53
2022-10-30T15:10:39.727Z,9.60
2022-10-30T15:13:20.174Z,9.57
2022-10-30T15:15:58.698Z,6.68
2022-10-30T15:18:30.334Z,5.78
2022-10-30T15:21:04.899Z,6.93
2022-10-30T15:23:35.561Z,9.52
2022-10-30T15:26:10.117Z,8.77
2022-10-30T15:28:38.880Z,6.78
2022-10-30T15:31:18.241Z,10.50
2022-10-30T15:33:45.985Z,12.45
2022-10-30T15:36:29.072Z,9.25
2022-10-30T15:39:15.690Z,13.23
2022-10-30T15:41:47.493Z,7.53
2022-10-30T15:44:18.117Z,9.95
2022-10-30T15:46:47.499Z,11.77
2022-10-30T15:49:19.013Z,12.82
2022-10-30T15:51:47.377Z,6.55
2022-10-30T15:54:21.148Z,9.35
2022-10-30T15:57:27.155Z,4.95
2022-10-30T15:59:37.881Z,9.13
2022-10-30T16:02:20.920Z,8.65
2022-10-30T16:04:48.404Z,12.32
2022-10-30T16:07:27.075Z,16.10
2022-10-30T16:09:58.300Z,10.25
2022-10-30T16:12:30.874Z,15.80
2022-10-30T16:15:07.149Z,9.90
2022-10-30T16:17:34.810Z,9.95
2022-10-30T16:20:03.992Z,12.60
2022-10-30T16:22:39.448Z,11.52
2022-10-30T16:25:08.534Z,26.40
2022-10-30T16:27:44.026Z,27.10
2022-10-30T16:30:16.157Z,24.77
2022-10-30T16:32:52.350Z,24.50
2022-10-30T16:35:22.778Z,29.58
2022-10-30T16:37:53.371Z,26.00
2022-10-30T16:40:26.089Z,26.08
2022-10-30T16:43:01.660Z,27.95
2022-10-30T16:45:32.267Z,19.95
2022-10-30T16:48:09.405Z,25.48
2022-10-30T16:50:38.126Z,16.60
2022-10-30T16:53:06.795Z,29.67
2022-10-30T16:55:37.995Z,18.42
2022-10-30T16:58:05.435Z,29.95
2022-10-30T17:00:36.439Z,30.30
2022-10-30T17:03:09.979Z,26.33
2022-10-30T17:05:38.099Z,27.30
2022-10-30T17:08:26.686Z,27.67
2022-10-30T17:11:02.334Z,29.58
2022-10-30T17:13:35.357Z,37.63
2022-10-30T17:16:35.583Z,20.42
2022-10-30T17:19:30.568Z,31.77
2022-10-30T17:22:03.917Z,19.33
2022-10-30T17:24:38.449Z,26.08
2022-10-30T17:27:07.917Z,28.52
2022-10-30T17:29:35.023Z,41.67
2022-10-30T17:32:23.083Z,24.70
2022-10-30T17:35:12.429Z,24.30
2022-10-30T17:37:39.534Z,36.42
2022-10-30T17:40:07.063Z,31.15
2022-10-30T17:42:34.475Z,24.67
2022-10-30T17:45:01.694Z,24.63
2022-10-30T17:47:28.882Z,27.70
2022-10-30T17:49:56.002Z,21.77
2022-10-30T17:52:23.136Z,26.73
2022-10-30T17:54:50.349Z,21.80
2022-10-30T17:57:17.485Z,25.90
2022-10-30T17:59:44.703Z,21.77
2022-10-30T18:02:15.969Z,20.65
2022-10-30T18:04:44.263Z,18.92
2022-10-30T18:07:15.700Z,32.58
2022-10-30T18:09:43.811Z,24.88
2022-10-30T18:12:16.558Z,24.02
2022-10-30T18:14:45.483Z,31.40
2022-10-30T18:17:12.826Z,26.45
2022-10-30T18:19:40.094Z,25.15
2022-10-30T18:22:07.232Z,21.85
2022-10-30T18:24:34.448Z,28.60
2022-10-30T18:27:01.692Z,22.25
2022-10-30T18:29:28.816Z,12.82
2022-10-30T18:31:56.082Z,28.77
2022-10-30T18:34:23.215Z,24.23
2022-10-30T18:36:50.356Z,25.10
2022-10-30T18:39:17.477Z,23.88
2022-10-30T18:41:46.564Z,24.35
2022-10-30T18:44:15.605Z,26.17
2022-10-30T18:46:43.188Z,25.67
2022-10-30T18:49:10.546Z,17.85
2022-10-30T18:51:37.798Z,93.25
2022-10-30T18:54:13.434Z,32.35
2022-10-30T18:56:40.667Z,24.88
2022-10-30T18:59:07.889Z,19.35
2022-10-30T19:01:35.543Z,34.17
2022-10-30T19:04:04.284Z,22.08
2022-10-30T19:06:34.264Z,22.30
2022-10-30T19:09:01.811Z,23.83
2022-10-30T19:11:31.405Z,28.58
2022-10-30T19:13:59.202Z,19.73
2022-10-30T19:16:26.659Z,29.98
2022-10-30T19:18:53.928Z,26.42
2022-10-30T19:21:25.306Z,23.88
2022-10-30T19:23:52.738Z,20.92
2022-10-30T19:26:20.332Z,24.90
2022-10-30T19:28:47.555Z,29.48
2022-10-30T19:31:17.101Z,14.60
2022-10-30T19:33:44.931Z,55.00
2022-10-30T19:36:28.672Z,22.17
2022-10-30T19:38:56.302Z,22.38
2022-10-30T19:41:24.663Z,26.33
2022-10-30T19:43:52.983Z,25.08
2022-10-30T19:46:21.075Z,24.63
2022-10-30T19:48:57.290Z,22.55
2022-10-30T19:51:25.677Z,29.40
2022-10-30T19:53:53.756Z,24.00
2022-10-30T19:56:21.730Z,25.20
2022-10-30T19:58:49.603Z,28.02
2022-10-30T20:01:17.105Z,26.48
2022-10-30T20:03:44.565Z,49.25
2022-10-30T20:06:13.302Z,26.55
2022-10-30T20:08:40.786Z,23.52
2022-10-30T20:11:08.212Z,26.90
2022-10-30T20:13:36.972Z,54.88
2022-10-30T20:16:05.383Z,11.10
2022-10-30T20:18:36.063Z,36.38
2022-10-30T20:21:08.201Z,23.92
2022-10-30T20:23:36.084Z,41.03
2022-10-30T20:26:26.563Z,26.02
2022-10-30T20:28:54.438Z,29.83
2022-10-30T20:31:21.916Z,23.10
2022-10-30T20:33:49.029Z,36.55
2022-10-30T20:36:16.277Z,24.45
2022-10-30T20:38:43.600Z,23.00
2022-10-30T20:41:24.997Z,22.20
2022-10-30T20:43:52.381Z,37.17
2022-10-30T20:46:20.102Z,21.13
2022-10-30T20:48:48.015Z,18.95
2022-10-30T20:51:15.527Z,13.45
2022-10-30T20:53:42.787Z,52.65
2022-10-30T20:56:11.614Z,22.05
2022-10-30T20:58:39.108Z,19.95
2022-10-30T21:01:06.545Z,27.00
2022-10-30T21:03:33.964Z,47.60
2022-10-30T21:06:02.021Z,18.95
2022-10-30T21:08:33.732Z,25.60
2022-10-30T21:11:03.083Z,19.15
2022-10-30T21:13:31.123Z,36.40
2022-10-30T21:16:06.866Z,31.27
2022-10-30T21:18:34.067Z,15.00
2022-10-30T21:21:06.859Z,22.10
2022-10-30T21:23:34.289Z,40.58
2022-10-30T21:26:07.292Z,23.98
2022-10-30T21:28:34.661Z,18.92
2022-10-30T21:31:04.341Z,22.20
2022-10-30T21:33:32.948Z,28.55
2022-10-30T21:36:12.969Z,23.60
2022-10-30T21:38:42.076Z,18.33
2022-10-30T21:41:11.000Z,19.70
2022-10-30T21:43:38.182Z,22.35
2022-10-30T21:46:10.517Z,22.17
2022-10-30T21:48:38.212Z,23.88
2022-10-30T21:51:14.658Z,21.15
2022-10-30T21:53:42.252Z,53.70
2022-10-30T21:56:12.268Z,21.63
2022-10-30T21:58:39.682Z,21.40
